createdAt,value
2019-01-13T00:00:11.696Z,9.20
2019-01-13T00:02:40.296Z,9.20
2019-01-13T00:05:08.860Z,9.20
2019-01-13T00:07:37.239Z,9.20
2019-01-13T00:10:06.787Z,9.20
2019-01-13T00:12:35.632Z,9.30
2019-01-13T00:15:06.206Z,9.20
2019-01-13T00:17:34.600Z,9.30
2019-01-13T00:20:03.034Z,9.30
2019-01-13T00:22:31.430Z,9.30
2019-01-13T00:24:59.794Z,9.30
2019-01-13T00:27:28.207Z,9.30
2019-01-13T00:29:56.580Z,9.30
2019-01-13T00:32:24.997Z,9.30
2019-01-13T00:34:53.403Z,9.30
2019-01-13T00:37:21.779Z,9.30
2019-01-13T00:39:50.183Z,9.30
2019-01-13T00:42:18.558Z,9.30
2019-01-13T00:44:47.025Z,10.10
2019-01-13T00:47:15.395Z,9.30
2019-01-13T00:49:43.803Z,9.40
2019-01-13T00:52:12.183Z,9.30
2019-01-13T00:54:40.583Z,9.30
2019-01-13T00:57:08.996Z,9.30
2019-01-13T00:59:37.366Z,9.30
2019-01-13T01:02:05.772Z,9.30
2019-01-13T01:04:34.155Z,9.30
2019-01-13T01:07:02.574Z,9.30
2019-01-13T01:09:30.971Z,9.30
2019-01-13T01:11:59.415Z,9.30
2019-01-13T01:14:27.814Z,9.40
2019-01-13T01:16:56.207Z,9.40
2019-01-13T01:19:24.618Z,9.40
2019-01-13T01:21:53.004Z,9.40
2019-01-13T01:24:21.474Z,9.40
2019-01-13T01:26:49.885Z,9.40
2019-01-13T01:29:18.322Z,9.40
2019-01-13T01:31:46.731Z,9.40
2019-01-13T01:34:15.126Z,9.40
2019-01-13T01:36:43.534Z,9.40
2019-01-13T01:39:11.947Z,9.40
2019-01-13T01:41:40.330Z,9.40
2019-01-13T01:44:08.734Z,9.40
2019-01-13T01:46:37.109Z,9.40
2019-01-13T01:49:05.522Z,9.50
2019-01-13T01:51:33.899Z,9.40
2019-01-13T01:54:02.311Z,9.40
2019-01-13T01:56:30.725Z,9.40
2019-01-13T01:58:59.081Z,9.50
2019-01-13T02:01:27.481Z,9.50
2019-01-13T02:03:55.875Z,9.50
2019-01-13T02:06:24.305Z,9.40
2019-01-13T02:08:52.687Z,9.50
2019-01-13T02:11:21.097Z,9.50
2019-01-13T02:13:49.489Z,9.50
2019-01-13T02:16:17.898Z,9.50
2019-01-13T02:18:46.372Z,9.50
2019-01-13T02:21:14.772Z,9.50
2019-01-13T02:23:43.172Z,9.50
2019-01-13T02:26:12.535Z,9.50
2019-01-13T02:28:40.934Z,9.50
2019-01-13T02:31:09.314Z,9.50
2019-01-13T02:33:37.707Z,9.50
2019-01-13T02:36:25.542Z,9.50
2019-01-13T02:38:53.917Z,9.50
2019-01-13T02:41:22.319Z,9.50
2019-01-13T02:43:50.712Z,9.50
2019-01-13T02:46:19.126Z,9.50
2019-01-13T02:48:47.503Z,9.50
2019-01-13T02:51:15.927Z,9.50
2019-01-13T02:53:44.275Z,9.50
2019-01-13T02:56:12.670Z,9.50
2019-01-13T02:58:41.071Z,9.50
2019-01-13T03:01:09.483Z,9.50
2019-01-13T03:03:37.854Z,9.50
2019-01-13T03:06:06.227Z,9.50
2019-01-13T03:08:34.632Z,9.50
2019-01-13T03:11:03.010Z,9.60
2019-01-13T03:13:31.429Z,9.50
2019-01-13T03:15:59.797Z,9.50
2019-01-13T03:18:28.169Z,9.50
2019-01-13T03:20:56.584Z,9.60
2019-01-13T03:23:24.949Z,9.60
2019-01-13T03:25:53.340Z,9.60
2019-01-13T03:28:21.707Z,9.60
2019-01-13T03:30:50.117Z,9.60
2019-01-13T03:33:18.511Z,9.60
2019-01-13T03:35:46.907Z,9.60
2019-01-13T03:38:15.305Z,9.60
2019-01-13T03:40:43.699Z,9.60
2019-01-13T03:43:12.161Z,9.60
2019-01-13T03:45:40.566Z,9.60
2019-01-13T03:48:08.930Z,9.70
2019-01-13T03:50:37.351Z,9.60
2019-01-13T03:53:05.734Z,9.70
2019-01-13T03:55:34.140Z,9.70
2019-01-13T03:58:02.524Z,9.60
2019-01-13T04:00:30.928Z,9.60
2019-01-13T04:02:59.334Z,9.60
2019-01-13T04:05:27.710Z,9.70
2019-01-13T04:07:56.112Z,9.60
2019-01-13T04:10:24.499Z,9.70
2019-01-13T04:12:52.895Z,9.70
2019-01-13T04:15:41.866Z,9.60
2019-01-13T04:18:10.314Z,9.60
2019-01-13T04:20:38.686Z,9.60
2019-01-13T04:23:07.081Z,9.60
2019-01-13T04:25:35.448Z,9.60
2019-01-13T04:28:03.847Z,9.60
2019-01-13T04:30:32.256Z,9.60
2019-01-13T04:33:00.655Z,9.60
2019-01-13T04:35:29.056Z,9.60
2019-01-13T04:37:57.435Z,9.60
2019-01-13T04:40:25.848Z,9.60
2019-01-13T04:42:54.218Z,9.60
2019-01-13T04:45:22.608Z,9.60
2019-01-13T04:47:51.035Z,9.60
2019-01-13T04:50:19.388Z,9.70
2019-01-13T04:52:47.800Z,9.70
2019-01-13T04:55:16.208Z,9.70
2019-01-13T04:57:44.588Z,9.60
2019-01-13T05:00:15.922Z,9.60
2019-01-13T05:02:44.358Z,9.60
2019-01-13T05:05:12.762Z,9.60
2019-01-13T05:07:41.142Z,9.60
2019-01-13T05:10:13.038Z,9.60
2019-01-13T05:12:41.416Z,9.70
2019-01-13T05:15:09.824Z,9.60
2019-01-13T05:17:38.258Z,9.60
2019-01-13T05:20:09.997Z,9.60
2019-01-13T05:22:38.403Z,9.60
2019-01-13T05:25:07.526Z,9.70
2019-01-13T05:27:35.900Z,9.60
2019-01-13T05:30:10.391Z,9.60
2019-01-13T05:32:38.781Z,9.70
2019-01-13T05:35:07.173Z,9.70
2019-01-13T05:37:35.575Z,9.70
2019-01-13T05:40:06.789Z,9.70
2019-01-13T05:42:35.199Z,9.70
2019-01-13T05:45:04.541Z,9.70
2019-01-13T05:47:32.926Z,9.70
2019-01-13T05:50:01.440Z,9.70
2019-01-13T05:52:29.827Z,9.70
2019-01-13T05:54:58.208Z,9.70
2019-01-13T05:57:26.602Z,9.70
2019-01-13T05:59:54.998Z,9.70
2019-01-13T06:02:23.417Z,9.70
2019-01-13T06:04:51.792Z,9.70
2019-01-13T06:07:20.179Z,9.80
2019-01-13T06:09:48.550Z,9.80
2019-01-13T06:12:16.955Z,9.80
2019-01-13T06:14:45.336Z,9.80
2019-01-13T06:17:13.718Z,9.80
2019-01-13T06:19:42.123Z,9.80
2019-01-13T06:22:10.494Z,9.80
2019-01-13T06:24:38.859Z,9.80
2019-01-13T06:27:07.274Z,9.80
2019-01-13T06:29:35.659Z,9.80
2019-01-13T06:32:04.054Z,9.80
2019-01-13T06:34:32.435Z,9.80
2019-01-13T06:37:00.849Z,9.80
2019-01-13T06:39:29.226Z,9.90
2019-01-13T06:41:57.631Z,9.80
2019-01-13T06:44:26.023Z,9.80
2019-01-13T06:46:54.436Z,9.80
2019-01-13T06:49:23.067Z,9.80
2019-01-13T06:51:51.480Z,9.70
2019-01-13T06:54:19.859Z,9.70
2019-01-13T06:56:48.262Z,9.70
2019-01-13T06:59:16.719Z,9.70
2019-01-13T07:01:45.105Z,9.70
2019-01-13T07:04:13.520Z,9.70
2019-01-13T07:06:41.890Z,9.70
2019-01-13T07:09:10.285Z,9.70
2019-01-13T07:11:38.675Z,9.70
2019-01-13T07:14:07.073Z,9.70
2019-01-13T07:16:35.495Z,9.70
2019-01-13T07:19:03.888Z,9.70
2019-01-13T07:21:32.292Z,9.60
2019-01-13T07:24:00.663Z,9.70
2019-01-13T07:26:29.071Z,9.70
2019-01-13T07:28:57.450Z,9.70
2019-01-13T07:31:25.860Z,9.60
2019-01-13T07:33:54.238Z,9.60
2019-01-13T07:36:22.637Z,9.70
2019-01-13T07:38:51.010Z,9.70
2019-01-13T07:41:19.424Z,9.70
2019-01-13T07:43:47.794Z,9.70
2019-01-13T07:46:16.204Z,9.70
2019-01-13T07:48:44.613Z,9.70
2019-01-13T07:51:12.993Z,9.70
2019-01-13T07:53:41.393Z,9.70
2019-01-13T07:56:09.877Z,9.70
2019-01-13T07:58:38.270Z,9.70
2019-01-13T08:01:06.716Z,9.60
2019-01-13T08:03:35.116Z,9.60
2019-01-13T08:06:03.509Z,9.70
2019-01-13T08:08:31.897Z,9.60
2019-01-13T08:11:00.297Z,9.70
2019-01-13T08:13:28.723Z,9.70
2019-01-13T08:15:57.309Z,9.70
2019-01-13T08:18:25.688Z,9.70
2019-01-13T08:20:54.086Z,9.70
2019-01-13T08:23:22.473Z,9.80
2019-01-13T08:25:50.875Z,9.90
2019-01-13T08:28:19.287Z,9.90
2019-01-13T08:30:47.669Z,9.90
2019-01-13T08:33:16.085Z,9.90
2019-01-13T08:35:44.488Z,10.00
2019-01-13T08:38:12.875Z,10.00
2019-01-13T08:40:41.355Z,10.10
2019-01-13T08:43:09.731Z,10.10
2019-01-13T08:45:38.144Z,10.10
2019-01-13T08:48:06.534Z,10.10
2019-01-13T08:50:34.953Z,10.10
2019-01-13T08:53:03.366Z,10.10
2019-01-13T08:55:31.767Z,10.10
2019-01-13T08:58:00.172Z,10.10
2019-01-13T09:00:29.906Z,10.00
2019-01-13T09:02:58.985Z,10.00
2019-01-13T09:05:27.492Z,10.00
2019-01-13T09:07:55.904Z,10.00
2019-01-13T09:10:24.307Z,10.00
2019-01-13T09:12:56.676Z,10.00
2019-01-13T09:15:24.468Z,10.00
2019-01-13T09:17:52.891Z,10.00
2019-01-13T09:20:26.981Z,10.00
2019-01-13T09:22:55.824Z,10.00
2019-01-13T09:25:24.242Z,10.00
2019-01-13T09:27:52.646Z,10.10
2019-01-13T09:30:23.858Z,10.10
2019-01-13T09:32:52.240Z,10.10
2019-01-13T09:35:20.624Z,10.10
2019-01-13T09:37:49.107Z,10.10
2019-01-13T09:40:22.897Z,10.20
2019-01-13T09:42:51.277Z,10.20
2019-01-13T09:45:19.665Z,10.20
2019-01-13T09:47:48.148Z,10.20
2019-01-13T09:50:18.774Z,10.20
2019-01-13T09:52:47.185Z,10.10
2019-01-13T09:55:17.527Z,10.10
2019-01-13T09:57:45.927Z,10.10
2019-01-13T10:00:23.574Z,10.10
2019-01-13T10:02:51.963Z,10.10
2019-01-13T10:05:22.372Z,10.10
2019-01-13T10:07:50.742Z,10.10
2019-01-13T10:10:19.147Z,10.10
2019-01-13T10:12:47.542Z,10.10
2019-01-13T10:15:18.488Z,10.20
2019-01-13T10:17:46.988Z,10.20
2019-01-13T10:20:15.908Z,10.20
2019-01-13T10:22:44.280Z,10.20
2019-01-13T10:25:12.688Z,10.20
2019-01-13T10:27:41.082Z,10.20
2019-01-13T10:30:12.868Z,10.20
2019-01-13T10:32:41.275Z,10.20
2019-01-13T10:35:10.337Z,10.20
2019-01-13T10:37:38.794Z,10.20
2019-01-13T10:40:10.685Z,10.20
2019-01-13T10:42:39.083Z,10.20
2019-01-13T10:45:10.710Z,10.20
2019-01-13T10:47:39.126Z,10.20
2019-01-13T10:50:10.777Z,10.30
2019-01-13T10:52:39.367Z,10.30
2019-01-13T10:55:08.248Z,10.30
2019-01-13T10:57:36.593Z,10.30
2019-01-13T11:00:16.795Z,10.30
2019-01-13T11:02:45.180Z,10.40
2019-01-13T11:05:13.657Z,10.40
2019-01-13T11:07:42.103Z,10.40
2019-01-13T11:10:13.327Z,10.40
2019-01-13T11:12:41.739Z,10.40
2019-01-13T11:15:12.567Z,10.50
2019-01-13T11:17:40.954Z,10.50
2019-01-13T11:20:12.611Z,10.50
2019-01-13T11:22:41.015Z,10.50
2019-01-13T11:25:10.135Z,10.50
2019-01-13T11:27:38.546Z,10.50
2019-01-13T11:30:12.678Z,10.50
2019-01-13T11:32:41.078Z,10.60
2019-01-13T11:35:10.926Z,10.50
2019-01-13T11:37:39.298Z,10.50
2019-01-13T11:40:10.900Z,10.50
2019-01-13T11:42:39.369Z,10.50
2019-01-13T11:45:09.424Z,10.50
2019-01-13T11:47:37.827Z,10.60
2019-01-13T11:50:09.555Z,10.50
2019-01-13T11:52:38.042Z,10.60
2019-01-13T11:55:09.334Z,10.60
2019-01-13T11:57:37.754Z,10.60
2019-01-13T12:00:15.253Z,10.70
2019-01-13T12:02:43.657Z,10.70
2019-01-13T12:05:12.974Z,10.70
2019-01-13T12:07:41.379Z,10.70
2019-01-13T12:10:14.001Z,10.70
2019-01-13T12:12:42.475Z,10.70
2019-01-13T12:15:13.103Z,10.70
2019-01-13T12:17:41.558Z,10.70
2019-01-13T12:20:13.192Z,10.70
2019-01-13T12:22:41.574Z,10.70
2019-01-13T12:25:13.044Z,10.70
2019-01-13T12:27:41.419Z,10.70
2019-01-13T12:30:21.425Z,10.70
2019-01-13T12:32:49.826Z,10.70
2019-01-13T12:35:18.218Z,10.70
2019-01-13T12:37:46.622Z,10.80
2019-01-13T12:40:17.793Z,10.80
2019-01-13T12:42:46.776Z,10.70
2019-01-13T12:45:17.491Z,10.70
2019-01-13T12:47:45.889Z,10.70
2019-01-13T12:50:17.395Z,10.70
2019-01-13T12:52:45.803Z,10.70
2019-01-13T12:55:14.174Z,10.80
2019-01-13T12:57:42.586Z,10.70
2019-01-13T13:00:13.874Z,10.80
2019-01-13T13:02:42.259Z,10.70
2019-01-13T13:05:12.405Z,10.70
2019-01-13T13:07:40.819Z,10.70
2019-01-13T13:10:18.255Z,10.80
2019-01-13T13:12:46.721Z,10.70
2019-01-13T13:15:15.100Z,10.70
2019-01-13T13:17:43.517Z,10.70
2019-01-13T13:20:14.537Z,10.70
2019-01-13T13:22:42.931Z,10.80
2019-01-13T13:25:12.762Z,10.70
2019-01-13T13:27:41.157Z,10.70
2019-01-13T13:30:15.348Z,10.70
2019-01-13T13:32:43.783Z,10.70
2019-01-13T13:35:13.867Z,10.70
2019-01-13T13:37:42.254Z,10.60
2019-01-13T13:40:13.867Z,10.60
2019-01-13T13:42:42.211Z,10.60
2019-01-13T13:45:10.584Z,10.60
2019-01-13T13:47:38.995Z,10.60
2019-01-13T13:50:10.637Z,10.60
2019-01-13T13:52:39.038Z,10.60
2019-01-13T13:55:09.158Z,10.60
2019-01-13T13:57:37.607Z,10.60
2019-01-13T14:00:15.226Z,10.50
2019-01-13T14:02:43.630Z,10.60
2019-01-13T14:05:31.451Z,10.60
2019-01-13T14:07:59.845Z,10.60
2019-01-13T14:10:34.417Z,10.60
2019-01-13T14:13:02.814Z,10.70
2019-01-13T14:15:31.208Z,10.70
2019-01-13T14:17:59.594Z,10.70
2019-01-13T14:20:28.204Z,10.70
2019-01-13T14:22:56.583Z,10.70
2019-01-13T14:25:24.964Z,10.70
2019-01-13T14:27:53.372Z,10.70
2019-01-13T14:30:27.011Z,10.80
2019-01-13T14:32:55.825Z,10.70
2019-01-13T14:35:24.228Z,10.80
2019-01-13T14:37:52.633Z,10.80
2019-01-13T14:40:22.747Z,10.80
2019-01-13T14:42:51.223Z,10.80
2019-01-13T14:45:21.739Z,10.70
2019-01-13T14:47:50.166Z,10.70
2019-01-13T14:50:20.388Z,10.60
2019-01-13T14:52:48.916Z,10.60
2019-01-13T14:55:17.349Z,10.50
2019-01-13T14:57:45.715Z,10.50
2019-01-13T15:00:23.179Z,10.40
2019-01-13T15:02:51.546Z,10.40
2019-01-13T15:05:19.947Z,10.40
2019-01-13T15:07:48.330Z,10.40
2019-01-13T15:10:19.040Z,10.30
2019-01-13T15:12:47.441Z,10.30
2019-01-13T15:15:16.112Z,10.30
2019-01-13T15:17:44.490Z,10.30
2019-01-13T15:20:15.040Z,10.30
2019-01-13T15:22:43.426Z,10.30
2019-01-13T15:25:14.890Z,10.20
2019-01-13T15:27:43.293Z,10.30
2019-01-13T15:30:14.934Z,10.20
2019-01-13T15:32:43.592Z,10.30
2019-01-13T15:35:11.974Z,10.20
2019-01-13T15:37:40.363Z,10.20
2019-01-13T15:40:22.460Z,10.30
2019-01-13T15:42:50.859Z,10.30
2019-01-13T15:45:20.172Z,10.30
2019-01-13T15:47:48.738Z,10.30
2019-01-13T15:50:22.960Z,10.40
2019-01-13T15:52:51.390Z,10.40
2019-01-13T15:55:19.746Z,10.30
2019-01-13T15:57:48.160Z,10.40
2019-01-13T16:00:22.663Z,10.30
2019-01-13T16:02:51.041Z,10.30
2019-01-13T16:05:20.442Z,10.30
2019-01-13T16:07:48.890Z,10.30
2019-01-13T16:10:19.439Z,10.20
2019-01-13T16:12:47.819Z,10.20
2019-01-13T16:15:16.532Z,10.20
2019-01-13T16:17:44.972Z,10.30
2019-01-13T16:20:25.108Z,10.30
2019-01-13T16:22:53.439Z,10.20
2019-01-13T16:25:21.924Z,10.20
2019-01-13T16:27:50.371Z,10.10
2019-01-13T16:30:24.175Z,10.00
2019-01-13T16:32:52.587Z,10.00
2019-01-13T16:35:20.970Z,10.10
2019-01-13T16:37:49.377Z,10.20
2019-01-13T16:40:19.800Z,10.20
2019-01-13T16:42:48.348Z,10.20
2019-01-13T16:45:17.589Z,10.30
2019-01-13T16:47:46.716Z,10.30
2019-01-13T16:50:23.671Z,10.40
2019-01-13T16:52:53.415Z,10.30
2019-01-13T16:55:22.431Z,10.40
2019-01-13T16:57:50.773Z,10.40
2019-01-13T17:00:21.792Z,10.40
2019-01-13T17:02:50.160Z,10.30
2019-01-13T17:05:19.510Z,10.40
2019-01-13T17:07:48.076Z,10.40
2019-01-13T17:10:18.211Z,10.40
2019-01-13T17:12:46.597Z,10.50
2019-01-13T17:15:17.169Z,10.50
2019-01-13T17:17:45.568Z,10.50
2019-01-13T17:20:21.510Z,10.40
2019-01-13T17:22:49.906Z,10.40
2019-01-13T17:25:21.910Z,10.50
2019-01-13T17:27:50.343Z,10.40
2019-01-13T17:30:20.940Z,10.40
2019-01-13T17:32:49.370Z,10.50
2019-01-13T17:35:17.779Z,10.50
2019-01-13T17:37:46.196Z,10.50
2019-01-13T17:40:16.921Z,10.50
2019-01-13T17:42:45.324Z,10.50
2019-01-13T17:45:15.744Z,10.50
2019-01-13T17:47:44.714Z,10.40
2019-01-13T17:50:15.713Z,10.30
2019-01-13T17:52:44.092Z,10.20
2019-01-13T17:55:16.724Z,10.30
2019-01-13T17:57:45.193Z,10.20
2019-01-13T18:00:31.343Z,10.10
2019-01-13T18:03:08.726Z,9.70
2019-01-13T18:05:37.185Z,9.10
2019-01-13T18:08:05.622Z,8.90
2019-01-13T18:10:34.000Z,8.70
2019-01-13T18:13:02.458Z,8.70
2019-01-13T18:15:30.828Z,8.70
2019-01-13T18:17:59.220Z,8.60
2019-01-13T18:20:27.597Z,8.70
2019-01-13T18:22:56.006Z,8.70
2019-01-13T18:25:24.389Z,8.90
2019-01-13T18:27:52.816Z,9.10
2019-01-13T18:30:23.880Z,9.30
2019-01-13T18:32:52.258Z,9.40
2019-01-13T18:35:22.013Z,9.50
2019-01-13T18:37:50.388Z,9.50
2019-01-13T18:40:22.856Z,9.60
2019-01-13T18:42:51.244Z,9.60
2019-01-13T18:45:19.660Z,9.60
2019-01-13T18:47:48.069Z,9.70
2019-01-13T18:50:19.693Z,9.70
2019-01-13T18:52:54.292Z,9.70
2019-01-13T18:55:22.701Z,9.60
2019-01-13T18:57:51.077Z,9.70
2019-01-13T19:00:23.957Z,9.60
2019-01-13T19:02:52.340Z,9.50
2019-01-13T19:05:23.271Z,9.50
2019-01-13T19:07:51.655Z,9.40
2019-01-13T19:10:26.441Z,9.30
2019-01-13T19:13:00.880Z,9.20
2019-01-13T19:15:29.277Z,9.10
2019-01-13T19:17:59.225Z,9.10
2019-01-13T19:20:28.039Z,9.00
2019-01-13T19:22:56.661Z,9.00
2019-01-13T19:25:25.122Z,8.90
2019-01-13T19:27:53.498Z,8.90
2019-01-13T19:30:21.894Z,8.90
2019-01-13T19:32:50.276Z,8.80
2019-01-13T19:35:18.746Z,8.80
2019-01-13T19:37:47.178Z,8.80
2019-01-13T19:40:17.476Z,8.80
2019-01-13T19:42:45.871Z,8.70
2019-01-13T19:45:17.269Z,8.70
2019-01-13T19:47:45.654Z,8.70
2019-01-13T19:50:19.059Z,8.70
2019-01-13T19:52:47.459Z,8.70
2019-01-13T19:55:16.773Z,8.70
2019-01-13T19:57:45.167Z,8.70
2019-01-13T20:00:28.302Z,8.70
2019-01-13T20:02:56.705Z,8.80
2019-01-13T20:05:25.151Z,8.70
2019-01-13T20:07:53.553Z,8.70
2019-01-13T20:10:22.613Z,8.80
2019-01-13T20:12:50.994Z,8.70
2019-01-13T20:15:20.924Z,8.70
2019-01-13T20:17:49.304Z,8.70
2019-01-13T20:20:19.240Z,8.60
2019-01-13T20:22:48.036Z,8.70
2019-01-13T20:25:17.758Z,8.60
2019-01-13T20:27:46.203Z,8.60
2019-01-13T20:30:23.143Z,8.60
2019-01-13T20:32:51.567Z,8.60
2019-01-13T20:35:20.007Z,8.60
2019-01-13T20:37:48.402Z,8.60
2019-01-13T20:40:17.661Z,8.60
2019-01-13T20:42:46.090Z,8.50
2019-01-13T20:45:20.786Z,8.60
2019-01-13T20:47:49.196Z,8.50
2019-01-13T20:50:17.606Z,8.50
2019-01-13T20:52:45.986Z,8.50
2019-01-13T20:55:15.565Z,8.50
2019-01-13T20:57:43.958Z,8.50
2019-01-13T21:00:15.476Z,8.50
2019-01-13T21:02:43.880Z,8.50
2019-01-13T21:05:12.291Z,8.50
2019-01-13T21:07:40.661Z,8.60
2019-01-13T21:10:14.212Z,8.50
2019-01-13T21:12:42.620Z,8.50
2019-01-13T21:15:22.880Z,8.50
2019-01-13T21:17:57.515Z,8.50
2019-01-13T21:20:21.301Z,8.50
2019-01-13T21:22:49.734Z,8.50
2019-01-13T21:25:18.123Z,8.50
2019-01-13T21:27:46.875Z,8.40
2019-01-13T21:30:26.762Z,8.40
2019-01-13T21:32:55.158Z,8.50
2019-01-13T21:35:23.547Z,8.50
2019-01-13T21:37:51.952Z,8.50
2019-01-13T21:40:20.325Z,8.60
2019-01-13T21:42:48.694Z,8.60
2019-01-13T21:45:19.582Z,8.70
2019-01-13T21:47:47.959Z,8.70
2019-01-13T21:50:19.142Z,8.70
2019-01-13T21:52:47.520Z,8.80
2019-01-13T21:55:17.626Z,8.90
2019-01-13T21:57:46.042Z,8.80
2019-01-13T22:00:23.265Z,8.90
2019-01-13T22:02:51.642Z,8.90
2019-01-13T22:05:20.023Z,8.80
2019-01-13T22:07:48.409Z,8.80
2019-01-13T22:10:18.621Z,8.70
2019-01-13T22:12:47.043Z,8.60
2019-01-13T22:15:19.795Z,8.60
2019-01-13T22:17:48.199Z,8.60
2019-01-13T22:20:19.202Z,8.70
2019-01-13T22:22:47.585Z,8.90
2019-01-13T22:25:16.984Z,8.90
2019-01-13T22:27:45.346Z,9.00
2019-01-13T22:30:15.799Z,9.00
2019-01-13T22:32:44.166Z,9.10
2019-01-13T22:35:12.575Z,9.10
2019-01-13T22:37:40.968Z,9.00
2019-01-13T22:40:14.391Z,8.90
2019-01-13T22:42:42.761Z,8.90
2019-01-13T22:45:22.496Z,8.80
2019-01-13T22:47:50.936Z,8.60
2019-01-13T22:50:19.672Z,8.60
2019-01-13T22:52:48.079Z,8.50
2019-01-13T22:55:16.455Z,8.50
2019-01-13T22:57:44.862Z,8.50
2019-01-13T23:00:35.584Z,8.50
2019-01-13T23:03:04.017Z,8.50
2019-01-13T23:05:32.418Z,8.60
2019-01-13T23:08:00.798Z,8.70
2019-01-13T23:10:29.192Z,8.80
2019-01-13T23:12:57.567Z,8.80
2019-01-13T23:15:25.959Z,8.90
2019-01-13T23:17:55.239Z,8.90
2019-01-13T23:20:23.638Z,8.90
2019-01-13T23:22:52.014Z,9.00
2019-01-13T23:25:20.411Z,9.00
2019-01-13T23:27:48.819Z,9.00
2019-01-13T23:30:17.211Z,9.10
2019-01-13T23:32:45.604Z,9.00
2019-01-13T23:35:13.982Z,9.00
2019-01-13T23:37:42.402Z,8.90
2019-01-13T23:40:10.801Z,8.80
2019-01-13T23:42:39.182Z,8.70
2019-01-13T23:45:08.314Z,8.70
2019-01-13T23:47:36.696Z,8.70
2019-01-13T23:50:08.585Z,8.60
2019-01-13T23:52:37.000Z,8.50
2019-01-13T23:55:05.772Z,8.40
2019-01-13T23:57:34.147Z,8.40
